UAL173 VABB-VOMM
Flight info
| Callsign | UAL173 |
|---|---|
| Flight time | 1h 30m |
| Altitude | 37000 |
| Route | VEVAK2A EPKOS Q9 OPAMO OPAMO2F |
| Aircraft | B764/H-SDE3FGHIM3RWXY/LB1 |
Departure
| Time | 2026-04-23 09:53 |
|---|---|
| Airport | Chhatrapati Shivaji Maharaj International Airport (VABB) |
Arrival
| Time | 2026-04-23 11:24 |
|---|---|
| Airport | Chennai International Airport (VOMM) |
| Time | Latitude | Longitude | Altitude | Speed | Heading |
|---|---|---|---|---|---|
| 2026-04-23 09:32 | 19.09350 | 72.87271 | 46 ft | 0 kts | 306° |
| 2026-04-23 09:40 | 19.09350 | 72.87272 | 46 ft | 0 kts | 306° |
| 2026-04-23 09:41 | 19.09348 | 72.87275 | 46 ft | 2 kts | 306° |
| 2026-04-23 09:42 | 19.09339 | 72.87288 | 46 ft | 2 kts | 306° |
| 2026-04-23 09:42 | 19.09330 | 72.87301 | 46 ft | 2 kts | 306° |
| 2026-04-23 09:42 | 19.09321 | 72.87314 | 46 ft | 2 kts | 306° |
| 2026-04-23 09:42 | 19.09313 | 72.87327 | 46 ft | 2 kts | 306° |
| 2026-04-23 09:43 | 19.09306 | 72.87337 | 46 ft | 0 kts | 306° |
| 2026-04-23 09:43 | 19.09300 | 72.87348 | 46 ft | 2 kts | 270° |
| 2026-04-23 09:43 | 19.09305 | 72.87361 | 46 ft | 2 kts | 218° |
| 2026-04-23 09:43 | 19.09315 | 72.87366 | 46 ft | 0 kts | 184° |
| 2026-04-23 09:44 | 19.09320 | 72.87367 | 46 ft | 0 kts | 183° |
| 2026-04-23 09:46 | 19.09317 | 72.87366 | 46 ft | 0 kts | 183° |
| 2026-04-23 09:46 | 19.09304 | 72.87365 | 46 ft | 2 kts | 184° |
| 2026-04-23 09:47 | 19.09288 | 72.87362 | 46 ft | 2 kts | 198° |
| 2026-04-23 09:47 | 19.09260 | 72.87348 | 46 ft | 3 kts | 229° |
| 2026-04-23 09:47 | 19.09241 | 72.87306 | 46 ft | 8 kts | 248° |
| 2026-04-23 09:47 | 19.09200 | 72.87269 | 46 ft | 9 kts | 199° |
| 2026-04-23 09:48 | 19.09150 | 72.87279 | 46 ft | 5 kts | 121° |
| 2026-04-23 09:48 | 19.09141 | 72.87311 | 46 ft | 4 kts | 99° |
| 2026-04-23 09:48 | 19.09140 | 72.87340 | 46 ft | 3 kts | 88° |
| 2026-04-23 09:48 | 19.09141 | 72.87380 | 46 ft | 7 kts | 89° |
| 2026-04-23 09:49 | 19.09141 | 72.87440 | 46 ft | 9 kts | 89° |
| 2026-04-23 09:49 | 19.09143 | 72.87518 | 46 ft | 11 kts | 89° |
| 2026-04-23 09:49 | 19.09144 | 72.87612 | 46 ft | 14 kts | 89° |
| 2026-04-23 09:49 | 19.09145 | 72.87723 | 46 ft | 15 kts | 90° |
| 2026-04-23 09:50 | 19.09115 | 72.87793 | 46 ft | 9 kts | 152° |
| 2026-04-23 09:50 | 19.09063 | 72.87839 | 46 ft | 10 kts | 117° |
| 2026-04-23 09:50 | 19.09057 | 72.87914 | 46 ft | 11 kts | 87° |
| 2026-04-23 09:50 | 19.09059 | 72.87998 | 46 ft | 11 kts | 89° |
| 2026-04-23 09:51 | 19.09034 | 72.88046 | 46 ft | 7 kts | 153° |
| 2026-04-23 09:51 | 19.08980 | 72.88054 | 46 ft | 9 kts | 181° |
| 2026-04-23 09:51 | 19.08902 | 72.88032 | 46 ft | 12 kts | 216° |
| 2026-04-23 09:51 | 19.08888 | 72.88002 | 46 ft | 1 kts | 269° |
| 2026-04-23 09:52 | 19.08886 | 72.87964 | 46 ft | 8 kts | 268° |
| 2026-04-23 09:52 | 19.08885 | 72.87877 | 46 ft | 19 kts | 269° |
| 2026-04-23 09:52 | 19.08881 | 72.87543 | 46 ft | 73 kts | 269° |
| 2026-04-23 09:52 | 19.08872 | 72.86880 | 46 ft | 102 kts | 269° |
| 2026-04-23 09:53 | 19.08859 | 72.85980 | 46 ft | 142 kts | 270° |
| 2026-04-23 09:53 | 19.08833 | 72.84847 | 254 ft | 160 kts | 268° |
| 2026-04-23 09:53 | 19.08719 | 72.83607 | 551 ft | 177 kts | 266° |
| 2026-04-23 09:53 | 19.08548 | 72.82401 | 1293 ft | 162 kts | 263° |
| 2026-04-23 09:54 | 19.08170 | 72.81186 | 1383 ft | 195 kts | 243° |
| 2026-04-23 09:54 | 19.07170 | 72.80160 | 1753 ft | 211 kts | 212° |
| 2026-04-23 09:54 | 19.05718 | 72.79716 | 2194 ft | 220 kts | 187° |
| 2026-04-23 09:54 | 19.04186 | 72.79619 | 2769 ft | 220 kts | 180° |
| 2026-04-23 09:55 | 19.02669 | 72.79692 | 3279 ft | 223 kts | 173° |
| 2026-04-23 09:55 | 19.01063 | 72.79963 | 3474 ft | 246 kts | 164° |
| 2026-04-23 09:55 | 18.99422 | 72.80766 | 3604 ft | 273 kts | 146° |
| 2026-04-23 09:55 | 18.97808 | 72.81867 | 4176 ft | 283 kts | 147° |
| 2026-04-23 09:56 | 18.96153 | 72.82940 | 5044 ft | 281 kts | 147° |
| 2026-04-23 09:56 | 18.94535 | 72.83980 | 5825 ft | 281 kts | 147° |
| 2026-04-23 09:56 | 18.92884 | 72.85031 | 6618 ft | 282 kts | 147° |
| 2026-04-23 09:56 | 18.91212 | 72.86090 | 7391 ft | 283 kts | 147° |
| 2026-04-23 09:57 | 18.89569 | 72.87129 | 8103 ft | 285 kts | 147° |
| 2026-04-23 09:57 | 18.87862 | 72.88206 | 8876 ft | 287 kts | 147° |
| 2026-04-23 09:57 | 18.86148 | 72.89285 | 9623 ft | 289 kts | 147° |
| 2026-04-23 09:57 | 18.84423 | 72.90372 | 10313 ft | 294 kts | 148° |
| 2026-04-23 09:58 | 18.82565 | 72.91544 | 10439 ft | 324 kts | 148° |
| 2026-04-23 09:58 | 18.80564 | 72.92802 | 10571 ft | 352 kts | 148° |
| 2026-04-23 09:58 | 18.78450 | 72.94130 | 11478 ft | 356 kts | 148° |
| 2026-04-23 09:58 | 18.76294 | 72.95485 | 12347 ft | 362 kts | 148° |
| 2026-04-23 09:59 | 18.74126 | 72.96846 | 13251 ft | 366 kts | 148° |
| 2026-04-23 09:59 | 18.71915 | 72.98235 | 14116 ft | 371 kts | 148° |
| 2026-04-23 09:59 | 18.69701 | 72.99625 | 14993 ft | 377 kts | 148° |
| 2026-04-23 09:59 | 18.67420 | 73.01057 | 15889 ft | 381 kts | 148° |
| 2026-04-23 10:00 | 18.65120 | 73.02500 | 16650 ft | 388 kts | 148° |
| 2026-04-23 10:00 | 18.62794 | 73.03960 | 17569 ft | 392 kts | 149° |
| 2026-04-23 10:00 | 18.60419 | 73.05449 | 18352 ft | 399 kts | 149° |
| 2026-04-23 10:00 | 18.58021 | 73.06953 | 19285 ft | 401 kts | 149° |
| 2026-04-23 10:01 | 18.55600 | 73.08470 | 20045 ft | 408 kts | 149° |
| 2026-04-23 10:01 | 18.53136 | 73.10013 | 20916 ft | 411 kts | 149° |
| 2026-04-23 10:01 | 18.50661 | 73.11564 | 21601 ft | 417 kts | 149° |
| 2026-04-23 10:01 | 18.48129 | 73.13148 | 22361 ft | 420 kts | 149° |
| 2026-04-23 10:02 | 18.45592 | 73.14737 | 22994 ft | 426 kts | 149° |
| 2026-04-23 10:02 | 18.43010 | 73.16353 | 23732 ft | 429 kts | 150° |
| 2026-04-23 10:02 | 18.40424 | 73.17970 | 24323 ft | 435 kts | 150° |
| 2026-04-23 10:02 | 18.37793 | 73.19614 | 24910 ft | 439 kts | 150° |
| 2026-04-23 10:03 | 18.35157 | 73.21262 | 25521 ft | 442 kts | 150° |
| 2026-04-23 10:03 | 18.32474 | 73.22938 | 26005 ft | 447 kts | 151° |
| 2026-04-23 10:03 | 18.29773 | 73.24625 | 26569 ft | 450 kts | 151° |
| 2026-04-23 10:03 | 18.27069 | 73.26313 | 27054 ft | 454 kts | 152° |
| 2026-04-23 10:04 | 18.24349 | 73.28010 | 27500 ft | 458 kts | 152° |
| 2026-04-23 10:04 | 18.21585 | 73.29736 | 27952 ft | 461 kts | 152° |
| 2026-04-23 10:04 | 18.18801 | 73.31471 | 28369 ft | 464 kts | 152° |
| 2026-04-23 10:04 | 18.16003 | 73.33215 | 28777 ft | 467 kts | 152° |
| 2026-04-23 10:05 | 18.13192 | 73.34967 | 29183 ft | 470 kts | 152° |
| 2026-04-23 10:05 | 18.10321 | 73.36755 | 29584 ft | 472 kts | 153° |
| 2026-04-23 10:05 | 18.07502 | 73.38512 | 30019 ft | 474 kts | 153° |
| 2026-04-23 10:05 | 18.04661 | 73.40281 | 30470 ft | 474 kts | 153° |
| 2026-04-23 10:06 | 18.01795 | 73.42065 | 30901 ft | 474 kts | 154° |
| 2026-04-23 10:06 | 17.98973 | 73.43823 | 31523 ft | 469 kts | 154° |
| 2026-04-23 10:06 | 17.96138 | 73.45586 | 32137 ft | 465 kts | 155° |
| 2026-04-23 10:06 | 17.93362 | 73.47312 | 32612 ft | 463 kts | 155° |
| 2026-04-23 10:07 | 17.90594 | 73.49034 | 33249 ft | 457 kts | 156° |
| 2026-04-23 10:07 | 17.87821 | 73.50753 | 33653 ft | 458 kts | 156° |
| 2026-04-23 10:07 | 17.85076 | 73.52457 | 34068 ft | 458 kts | 156° |
| 2026-04-23 10:07 | 17.82331 | 73.54160 | 34583 ft | 456 kts | 156° |
| 2026-04-23 10:08 | 17.79555 | 73.55881 | 34908 ft | 458 kts | 156° |
| 2026-04-23 10:08 | 17.76833 | 73.57570 | 35488 ft | 453 kts | 156° |
| 2026-04-23 10:08 | 17.74089 | 73.59272 | 35897 ft | 453 kts | 156° |
| 2026-04-23 10:09 | 17.68645 | 73.62643 | 36509 ft | 456 kts | 156° |
| 2026-04-23 10:09 | 17.65900 | 73.64345 | 36888 ft | 453 kts | 156° |
| 2026-04-23 10:09 | 17.60445 | 73.67722 | 36916 ft | 452 kts | 156° |
| 2026-04-23 10:10 | 17.55015 | 73.71081 | 36923 ft | 450 kts | 157° |
| 2026-04-23 10:10 | 17.49588 | 73.74435 | 36955 ft | 451 kts | 156° |
| 2026-04-23 10:11 | 17.44132 | 73.77806 | 36968 ft | 451 kts | 156° |
| 2026-04-23 10:11 | 17.38727 | 73.81144 | 36975 ft | 448 kts | 157° |
| 2026-04-23 10:12 | 17.33310 | 73.84484 | 36965 ft | 447 kts | 157° |
| 2026-04-23 10:12 | 17.27914 | 73.87811 | 36960 ft | 450 kts | 157° |
| 2026-04-23 10:13 | 17.22534 | 73.91127 | 36943 ft | 444 kts | 158° |
| 2026-04-23 10:13 | 17.17137 | 73.94447 | 36929 ft | 448 kts | 158° |
| 2026-04-23 10:14 | 17.11734 | 73.97772 | 36902 ft | 446 kts | 158° |
| 2026-04-23 10:14 | 17.06371 | 74.01070 | 36910 ft | 442 kts | 158° |
| 2026-04-23 10:15 | 17.01069 | 74.04327 | 36912 ft | 443 kts | 158° |
| 2026-04-23 10:15 | 16.95703 | 74.07621 | 36908 ft | 443 kts | 158° |
| 2026-04-23 10:16 | 16.90397 | 74.10955 | 36898 ft | 448 kts | 153° |
| 2026-04-23 10:16 | 16.85881 | 74.15551 | 36927 ft | 468 kts | 137° |
| 2026-04-23 10:17 | 16.81816 | 74.20918 | 36909 ft | 469 kts | 137° |
| 2026-04-23 10:17 | 16.77760 | 74.26265 | 36909 ft | 468 kts | 137° |
| 2026-04-23 10:18 | 16.73711 | 74.31606 | 36906 ft | 466 kts | 137° |
| 2026-04-23 10:18 | 16.69658 | 74.36946 | 36915 ft | 470 kts | 136° |
| 2026-04-23 10:19 | 16.65602 | 74.42291 | 36914 ft | 468 kts | 137° |
| 2026-04-23 10:19 | 16.61550 | 74.47626 | 36916 ft | 466 kts | 137° |
| 2026-04-23 10:20 | 16.57483 | 74.52975 | 36910 ft | 469 kts | 137° |
| 2026-04-23 10:20 | 16.53431 | 74.58306 | 36901 ft | 466 kts | 137° |
| 2026-04-23 10:21 | 16.49386 | 74.63616 | 36900 ft | 469 kts | 137° |
| 2026-04-23 10:21 | 16.45327 | 74.68948 | 36891 ft | 464 kts | 137° |
| 2026-04-23 10:22 | 16.41312 | 74.74213 | 36908 ft | 463 kts | 137° |
| 2026-04-23 10:22 | 16.37274 | 74.79501 | 36919 ft | 466 kts | 137° |
| 2026-04-23 10:23 | 16.33241 | 74.84782 | 36910 ft | 466 kts | 137° |
| 2026-04-23 10:23 | 16.29178 | 74.90099 | 36906 ft | 464 kts | 137° |
| 2026-04-23 10:24 | 16.25153 | 74.95361 | 36906 ft | 465 kts | 137° |
| 2026-04-23 10:24 | 16.21102 | 75.00653 | 36906 ft | 466 kts | 138° |
| 2026-04-23 10:25 | 16.17045 | 75.05949 | 36896 ft | 465 kts | 137° |
| 2026-04-23 10:25 | 16.13005 | 75.11221 | 36896 ft | 465 kts | 137° |
| 2026-04-23 10:26 | 16.08974 | 75.16478 | 36889 ft | 461 kts | 137° |
| 2026-04-23 10:26 | 16.04954 | 75.21712 | 36898 ft | 464 kts | 137° |
| 2026-04-23 10:27 | 16.00886 | 75.27007 | 36891 ft | 466 kts | 137° |
| 2026-04-23 10:27 | 15.96830 | 75.32283 | 36893 ft | 465 kts | 137° |
| 2026-04-23 10:28 | 15.92759 | 75.37576 | 36897 ft | 466 kts | 137° |
| 2026-04-23 10:28 | 15.88704 | 75.42844 | 36908 ft | 465 kts | 137° |
| 2026-04-23 10:29 | 15.84665 | 75.48087 | 36899 ft | 464 kts | 137° |
| 2026-04-23 10:29 | 15.80598 | 75.53360 | 36901 ft | 465 kts | 137° |
| 2026-04-23 10:30 | 15.76523 | 75.58643 | 36893 ft | 464 kts | 137° |
| 2026-04-23 10:30 | 15.72475 | 75.63889 | 36895 ft | 462 kts | 137° |
| 2026-04-23 10:31 | 15.68452 | 75.69095 | 36889 ft | 464 kts | 137° |
| 2026-04-23 10:31 | 15.64416 | 75.74315 | 36891 ft | 463 kts | 137° |
| 2026-04-23 10:32 | 15.60346 | 75.79575 | 36890 ft | 464 kts | 137° |
| 2026-04-23 10:32 | 15.56294 | 75.84808 | 36890 ft | 465 kts | 137° |
| 2026-04-23 10:33 | 15.52224 | 75.90063 | 36885 ft | 463 kts | 137° |
| 2026-04-23 10:33 | 15.48173 | 75.95287 | 36886 ft | 464 kts | 137° |
| 2026-04-23 10:34 | 15.44121 | 76.00509 | 36875 ft | 463 kts | 137° |
| 2026-04-23 10:34 | 15.40069 | 76.05728 | 36874 ft | 463 kts | 137° |
| 2026-04-23 10:35 | 15.35994 | 76.10974 | 36868 ft | 463 kts | 137° |
| 2026-04-23 10:35 | 15.31953 | 76.16171 | 36864 ft | 464 kts | 137° |
| 2026-04-23 10:36 | 15.27900 | 76.21381 | 36852 ft | 462 kts | 136° |
| 2026-04-23 10:36 | 15.23836 | 76.26602 | 36856 ft | 462 kts | 137° |
| 2026-04-23 10:37 | 15.19787 | 76.31799 | 36865 ft | 461 kts | 136° |
| 2026-04-23 10:37 | 15.15735 | 76.36996 | 36874 ft | 462 kts | 137° |
| 2026-04-23 10:38 | 15.11685 | 76.42187 | 36874 ft | 462 kts | 137° |
| 2026-04-23 10:38 | 15.07644 | 76.47362 | 36874 ft | 461 kts | 136° |
| 2026-04-23 10:39 | 15.03563 | 76.52584 | 36888 ft | 463 kts | 136° |
| 2026-04-23 10:39 | 14.99508 | 76.57770 | 36896 ft | 463 kts | 136° |
| 2026-04-23 10:40 | 14.95454 | 76.62952 | 36891 ft | 461 kts | 136° |
| 2026-04-23 10:40 | 14.91426 | 76.68098 | 36878 ft | 460 kts | 136° |
| 2026-04-23 10:41 | 14.87543 | 76.73053 | 36892 ft | 462 kts | 136° |
| 2026-04-23 10:41 | 14.83465 | 76.78256 | 36884 ft | 461 kts | 137° |
| 2026-04-23 10:42 | 14.79429 | 76.83401 | 36874 ft | 460 kts | 137° |
| 2026-04-23 10:42 | 14.75387 | 76.88549 | 36868 ft | 462 kts | 137° |
| 2026-04-23 10:43 | 14.71321 | 76.93726 | 36863 ft | 460 kts | 136° |
| 2026-04-23 10:43 | 14.67271 | 76.98879 | 36854 ft | 459 kts | 137° |
| 2026-04-23 10:44 | 14.63243 | 77.04000 | 36856 ft | 460 kts | 137° |
| 2026-04-23 10:44 | 14.59438 | 77.09390 | 36869 ft | 469 kts | 126° |
| 2026-04-23 10:45 | 14.56903 | 77.15707 | 36869 ft | 481 kts | 118° |
| 2026-04-23 10:45 | 14.54517 | 77.22204 | 36866 ft | 480 kts | 118° |
| 2026-04-23 10:46 | 14.52161 | 77.28657 | 36868 ft | 479 kts | 118° |
| 2026-04-23 10:46 | 14.49806 | 77.35117 | 36862 ft | 480 kts | 117° |
| 2026-04-23 10:47 | 14.47453 | 77.41573 | 36861 ft | 480 kts | 118° |
| 2026-04-23 10:47 | 14.45092 | 77.48044 | 36852 ft | 480 kts | 117° |
| 2026-04-23 10:48 | 14.42730 | 77.54513 | 36846 ft | 479 kts | 118° |
| 2026-04-23 10:48 | 14.40380 | 77.60944 | 36840 ft | 478 kts | 118° |
| 2026-04-23 10:49 | 14.38017 | 77.67403 | 36828 ft | 480 kts | 118° |
| 2026-04-23 10:49 | 14.35656 | 77.73852 | 36819 ft | 479 kts | 118° |
| 2026-04-23 10:50 | 14.33301 | 77.80276 | 36817 ft | 479 kts | 118° |
| 2026-04-23 10:50 | 14.30927 | 77.86749 | 36831 ft | 480 kts | 118° |
| 2026-04-23 10:51 | 14.28563 | 77.93188 | 36840 ft | 478 kts | 118° |
| 2026-04-23 10:51 | 14.26207 | 77.99596 | 36849 ft | 478 kts | 118° |
| 2026-04-23 10:52 | 14.23841 | 78.06029 | 36847 ft | 478 kts | 118° |
| 2026-04-23 10:52 | 14.21482 | 78.12434 | 36850 ft | 478 kts | 118° |
| 2026-04-23 10:53 | 14.19115 | 78.18858 | 36851 ft | 478 kts | 118° |
| 2026-04-23 10:53 | 14.16735 | 78.25307 | 36862 ft | 480 kts | 118° |
| 2026-04-23 10:54 | 14.14351 | 78.31767 | 36855 ft | 479 kts | 118° |
| 2026-04-23 10:54 | 14.11979 | 78.38184 | 36849 ft | 480 kts | 118° |
| 2026-04-23 10:55 | 14.09589 | 78.44646 | 36841 ft | 480 kts | 118° |
| 2026-04-23 10:55 | 14.07204 | 78.51086 | 36823 ft | 480 kts | 118° |
| 2026-04-23 10:56 | 14.04828 | 78.57495 | 36823 ft | 480 kts | 117° |
| 2026-04-23 10:56 | 14.01926 | 78.63635 | 36838 ft | 468 kts | 128° |
| 2026-04-23 10:57 | 13.98572 | 78.69398 | 36829 ft | 470 kts | 128° |
| 2026-04-23 10:57 | 13.95188 | 78.75203 | 36825 ft | 469 kts | 128° |
| 2026-04-23 10:58 | 13.91812 | 78.80982 | 36812 ft | 470 kts | 128° |
| 2026-04-23 10:58 | 13.88450 | 78.86731 | 36831 ft | 471 kts | 128° |
| 2026-04-23 10:59 | 13.85055 | 78.92530 | 36834 ft | 470 kts | 128° |
| 2026-04-23 10:59 | 13.81666 | 78.98316 | 36845 ft | 470 kts | 128° |
| 2026-04-23 11:00 | 13.78285 | 79.04083 | 36850 ft | 469 kts | 128° |
| 2026-04-23 11:00 | 13.74894 | 79.09862 | 36866 ft | 470 kts | 128° |
| 2026-04-23 11:01 | 13.71516 | 79.15617 | 36877 ft | 470 kts | 128° |
| 2026-04-23 11:01 | 13.68134 | 79.21374 | 36861 ft | 469 kts | 128° |
| 2026-04-23 11:02 | 13.64733 | 79.27158 | 36853 ft | 469 kts | 128° |
| 2026-04-23 11:02 | 13.61349 | 79.32909 | 36837 ft | 469 kts | 128° |
| 2026-04-23 11:03 | 13.57969 | 79.38652 | 36813 ft | 469 kts | 128° |
| 2026-04-23 11:03 | 13.54557 | 79.44443 | 36794 ft | 470 kts | 128° |
| 2026-04-23 11:04 | 13.51181 | 79.50171 | 36782 ft | 469 kts | 128° |
| 2026-04-23 11:04 | 13.47783 | 79.55931 | 36777 ft | 468 kts | 128° |
| 2026-04-23 11:05 | 13.44395 | 79.61671 | 36773 ft | 468 kts | 128° |
| 2026-04-23 11:05 | 13.40543 | 79.66904 | 36778 ft | 456 kts | 139° |
| 2026-04-23 11:06 | 13.34022 | 79.74133 | 36778 ft | 457 kts | 139° |
| 2026-04-23 11:07 | 13.29693 | 79.78899 | 36772 ft | 455 kts | 140° |
| 2026-04-23 11:07 | 13.25347 | 79.83671 | 36759 ft | 454 kts | 139° |
| 2026-04-23 11:08 | 13.21006 | 79.88433 | 36459 ft | 454 kts | 139° |
| 2026-04-23 11:08 | 13.18845 | 79.90811 | 34738 ft | 465 kts | 139° |
| 2026-04-23 11:08 | 13.16659 | 79.93201 | 33135 ft | 467 kts | 139° |
| 2026-04-23 11:08 | 13.14449 | 79.95586 | 31667 ft | 468 kts | 139° |
| 2026-04-23 11:09 | 13.12178 | 79.98003 | 30222 ft | 469 kts | 139° |
| 2026-04-23 11:09 | 13.09923 | 80.00384 | 28801 ft | 470 kts | 139° |
| 2026-04-23 11:09 | 13.07675 | 80.02734 | 27380 ft | 470 kts | 139° |
| 2026-04-23 11:09 | 13.05354 | 80.05103 | 25934 ft | 468 kts | 138° |
| 2026-04-23 11:10 | 13.03057 | 80.07385 | 24943 ft | 455 kts | 139° |
| 2026-04-23 11:10 | 13.00782 | 80.09615 | 23657 ft | 452 kts | 138° |
| 2026-04-23 11:10 | 12.98541 | 80.11762 | 22496 ft | 444 kts | 139° |
| 2026-04-23 11:10 | 12.96297 | 80.13875 | 21330 ft | 438 kts | 139° |
| 2026-04-23 11:11 | 12.94059 | 80.15964 | 20146 ft | 433 kts | 137° |
| 2026-04-23 11:11 | 12.92114 | 80.18261 | 19809 ft | 418 kts | 125° |
| 2026-04-23 11:11 | 12.90709 | 80.20743 | 19689 ft | 405 kts | 116° |
| 2026-04-23 11:11 | 12.89725 | 80.23446 | 18945 ft | 408 kts | 105° |
| 2026-04-23 11:12 | 12.89189 | 80.26310 | 18242 ft | 409 kts | 98° |
| 2026-04-23 11:12 | 12.88738 | 80.29176 | 17535 ft | 411 kts | 99° |
| 2026-04-23 11:12 | 12.88262 | 80.32049 | 16840 ft | 412 kts | 99° |
| 2026-04-23 11:12 | 12.87768 | 80.34965 | 16146 ft | 412 kts | 98° |
| 2026-04-23 11:13 | 12.87276 | 80.37824 | 15482 ft | 411 kts | 99° |
| 2026-04-23 11:13 | 12.86770 | 80.40701 | 14794 ft | 410 kts | 99° |
| 2026-04-23 11:13 | 12.86263 | 80.43546 | 14109 ft | 408 kts | 98° |
| 2026-04-23 11:13 | 12.85755 | 80.46414 | 13413 ft | 405 kts | 98° |
| 2026-04-23 11:14 | 12.85512 | 80.49267 | 12715 ft | 401 kts | 88° |
| 2026-04-23 11:14 | 12.85797 | 80.52078 | 11983 ft | 397 kts | 77° |
| 2026-04-23 11:14 | 12.86463 | 80.54758 | 10905 ft | 384 kts | 73° |
| 2026-04-23 11:14 | 12.87146 | 80.57349 | 9933 ft | 371 kts | 73° |
| 2026-04-23 11:15 | 12.87962 | 80.59800 | 8957 ft | 358 kts | 62° |
| 2026-04-23 11:15 | 12.89335 | 80.61853 | 8015 ft | 347 kts | 47° |
| 2026-04-23 11:15 | 12.91038 | 80.63530 | 7152 ft | 337 kts | 42° |
| 2026-04-23 11:15 | 12.92924 | 80.64891 | 6447 ft | 326 kts | 26° |
| 2026-04-23 11:16 | 12.95056 | 80.65552 | 5925 ft | 314 kts | 8° |
| 2026-04-23 11:16 | 12.97218 | 80.65472 | 5697 ft | 308 kts | 351° |
| 2026-04-23 11:16 | 12.99207 | 80.64709 | 5412 ft | 307 kts | 332° |
| 2026-04-23 11:16 | 13.00848 | 80.63312 | 5124 ft | 306 kts | 312° |
| 2026-04-23 11:17 | 13.01923 | 80.61441 | 4858 ft | 305 kts | 291° |
| 2026-04-23 11:17 | 13.02558 | 80.59392 | 4581 ft | 301 kts | 289° |
| 2026-04-23 11:17 | 13.03191 | 80.57346 | 4277 ft | 299 kts | 289° |
| 2026-04-23 11:17 | 13.03828 | 80.55315 | 3926 ft | 299 kts | 289° |
| 2026-04-23 11:18 | 13.04474 | 80.53288 | 3571 ft | 299 kts | 289° |
| 2026-04-23 11:18 | 13.05135 | 80.51244 | 3226 ft | 298 kts | 289° |
| 2026-04-23 11:18 | 13.05791 | 80.49253 | 2984 ft | 294 kts | 289° |
| 2026-04-23 11:18 | 13.06446 | 80.47292 | 2743 ft | 289 kts | 289° |
| 2026-04-23 11:19 | 13.07110 | 80.45325 | 2503 ft | 286 kts | 289° |
| 2026-04-23 11:19 | 13.07749 | 80.43424 | 2360 ft | 278 kts | 285° |
| 2026-04-23 11:19 | 13.07838 | 80.41520 | 2257 ft | 264 kts | 255° |
| 2026-04-23 11:19 | 13.07347 | 80.39755 | 2170 ft | 254 kts | 251° |
| 2026-04-23 11:20 | 13.06825 | 80.38047 | 2068 ft | 247 kts | 249° |
| 2026-04-23 11:20 | 13.06285 | 80.36416 | 2039 ft | 239 kts | 248° |
| 2026-04-23 11:20 | 13.05729 | 80.34824 | 2048 ft | 237 kts | 247° |
| 2026-04-23 11:20 | 13.05159 | 80.33225 | 2058 ft | 239 kts | 247° |
| 2026-04-23 11:21 | 13.04581 | 80.31625 | 2054 ft | 241 kts | 246° |
| 2026-04-23 11:21 | 13.03970 | 80.30018 | 2060 ft | 241 kts | 246° |
| 2026-04-23 11:21 | 13.03357 | 80.28395 | 2009 ft | 243 kts | 246° |
| 2026-04-23 11:21 | 13.02741 | 80.26763 | 1697 ft | 248 kts | 246° |
| 2026-04-23 11:22 | 13.02131 | 80.25137 | 1387 ft | 235 kts | 245° |
| 2026-04-23 11:22 | 13.01571 | 80.23652 | 1149 ft | 219 kts | 245° |
| 2026-04-23 11:22 | 13.01055 | 80.22279 | 825 ft | 197 kts | 245° |
| 2026-04-23 11:22 | 13.00608 | 80.21087 | 724 ft | 163 kts | 244° |
| 2026-04-23 11:23 | 13.00202 | 80.20026 | 433 ft | 153 kts | 243° |
| 2026-04-23 11:23 | 12.99824 | 80.19034 | 210 ft | 149 kts | 244° |
| 2026-04-23 11:23 | 12.99455 | 80.18053 | 71 ft | 144 kts | 243° |
| 2026-04-23 11:23 | 12.99155 | 80.17261 | 65 ft | 84 kts | 247° |
| 2026-04-23 11:24 | 12.98988 | 80.16821 | 65 ft | 63 kts | 248° |
| 2026-04-23 11:24 | 12.98837 | 80.16454 | 65 ft | 37 kts | 238° |
| 2026-04-23 11:24 | 12.98679 | 80.16304 | 65 ft | 25 kts | 218° |
| 2026-04-23 11:24 | 12.98553 | 80.16193 | 65 ft | 13 kts | 235° |
| 2026-04-23 11:25 | 12.98491 | 80.16141 | 65 ft | 9 kts | 189° |
| 2026-04-23 11:25 | 12.98436 | 80.16154 | 65 ft | 7 kts | 161° |
| 2026-04-23 11:25 | 12.98394 | 80.16160 | 65 ft | 4 kts | 189° |
| 2026-04-23 11:25 | 12.98371 | 80.16143 | 65 ft | 6 kts | 231° |
| 2026-04-23 11:26 | 12.98340 | 80.16106 | 65 ft | 4 kts | 197° |
| 2026-04-23 11:26 | 12.98297 | 80.16112 | 65 ft | 7 kts | 158° |
| 2026-04-23 11:26 | 12.98275 | 80.16122 | 65 ft | 0 kts | 159° |